Aérodrome :
LOGIN :

S'inscrire | Disclaimer

   EN    FR    IT 

 










Légende :    VFR   VFR Marginal   IFR   IFR Intensif   IFR Très Intensif
Visi : 
Plafond : 
>= 8 km
>= 3000ft
5 à 8 km
1000 à 3000 ft
1500m à 5 km
500 à 1000 ft
800 à 1500m
200 à 500 ft
< 800m
< 200 ft
Symboles :   Orages  Brouillard  Fortes neiges  Fortes précipitations  Vent > 20 kt
SIGMETs :   Divers  Orages  Givrage  Turbulence  Onde Orograph.  Cendres Volcan.







- Altitude de l'aérodrome : 353 ft
- Code IATA : ZAG


LDZA - Zagreb Pleso

DERNIER METAR :
  • 182200Z 00000KT CAVOK 19/14 Q1014 NOSIG

METARs EXPIRÉS :
  • 182130Z 10002KT CAVOK 20/14 Q1013 NOSIG
  • 182100Z 12003KT CAVOK 20/14 Q1013 NOSIG
  • 182030Z 09004KT 060V120 CAVOK 21/14 Q1013 NOSIG
  • 182000Z 11004KT CAVOK 22/14 Q1013 NOSIG
  • 181930Z 08006KT 020V160 CAVOK 24/14 Q1013 WS R05 NOSIG

TAF AMD TAF LDZA
Valide du 18 à 18h jusqu'au 19 à 18h UTC


181900Z 1818/1918 04012KT CAVOK TX29/1913Z TN18/1903Z
BECMG 1820/1822 25005KT
TEMPO 1909/1915 29012KT
ATIS : +385 1 6-259-214
Pas de NOTAMs connus pour ce terrain.



MET'MAP, la Météo Aéronautique d'un coup d'oeil ! - Copyright ORBIFLY Décembre 2007 - Disclaimer

ORBIFLY MET'MAP TEAM :

Programmation & Développement : Alexandra Zaïnal
Conception & Développement : Baudouin d'Aumeries
Co-Programmation & Développement : Marc-Olivier Méhu
Soutien technique & logistique : Manuel Goepfert

Contact : metmap@orbifly.com




SOURCES & CREDITS :

   NOAA